sensor_id;sensor_type;location;lat;lon;timestamp;temperature;humidity
36654;DHT22;22650;49.350;20.898;2023-06-19T00:00:43;13.00;99.90
36654;DHT22;22650;49.350;20.898;2023-06-19T00:03:17;13.00;99.90
36654;DHT22;22650;49.350;20.898;2023-06-19T00:05:50;13.00;99.90
36654;DHT22;22650;49.350;20.898;2023-06-19T00:08:24;13.00;99.90
36654;DHT22;22650;49.350;20.898;2023-06-19T00:10:59;13.00;99.90
36654;DHT22;22650;49.350;20.898;2023-06-19T00:13:33;13.00;99.90
36654;DHT22;22650;49.350;20.898;2023-06-19T00:16:07;12.90;99.90
36654;DHT22;22650;49.350;20.898;2023-06-19T00:18:41;12.90;99.90
36654;DHT22;22650;49.350;20.898;2023-06-19T00:21:15;12.90;99.90
36654;DHT22;22650;49.350;20.898;2023-06-19T00:23:49;12.90;99.90
36654;DHT22;22650;49.350;20.898;2023-06-19T00:26:24;12.90;99.90
36654;DHT22;22650;49.350;20.898;2023-06-19T00:28:58;12.90;99.90
36654;DHT22;22650;49.350;20.898;2023-06-19T00:31:33;12.90;99.90
36654;DHT22;22650;49.350;20.898;2023-06-19T00:34:11;12.80;99.90
36654;DHT22;22650;49.350;20.898;2023-06-19T00:36:44;12.80;99.90
36654;DHT22;22650;49.350;20.898;2023-06-19T00:39:19;12.80;99.90
36654;DHT22;22650;49.350;20.898;2023-06-19T00:41:54;12.80;99.90
36654;DHT22;22650;49.350;20.898;2023-06-19T00:44:28;12.80;99.90
36654;DHT22;22650;49.350;20.898;2023-06-19T00:47:04;12.80;99.90
36654;DHT22;22650;49.350;20.898;2023-06-19T00:49:38;12.80;99.90
36654;DHT22;22650;49.350;20.898;2023-06-19T00:52:12;12.70;99.90
36654;DHT22;22650;49.350;20.898;2023-06-19T00:54:47;12.70;99.90
36654;DHT22;22650;49.350;20.898;2023-06-19T00:57:22;12.70;99.90
36654;DHT22;22650;49.350;20.898;2023-06-19T00:59:57;12.70;99.90
36654;DHT22;22650;49.350;20.898;2023-06-19T01:02:31;12.60;99.90
36654;DHT22;22650;49.350;20.898;2023-06-19T01:05:05;12.60;99.90
36654;DHT22;22650;49.350;20.898;2023-06-19T01:07:44;12.60;99.90
36654;DHT22;22650;49.350;20.898;2023-06-19T01:10:21;12.60;99.90
36654;DHT22;22650;49.350;20.898;2023-06-19T01:13:02;12.50;99.90
36654;DHT22;22650;49.350;20.898;2023-06-19T01:15:40;12.50;99.90
36654;DHT22;22650;49.350;20.898;2023-06-19T01:18:15;12.50;99.90
36654;DHT22;22650;49.350;20.898;2023-06-19T01:20:50;12.50;99.90
36654;DHT22;22650;49.350;20.898;2023-06-19T01:23:25;12.40;99.90
36654;DHT22;22650;49.350;20.898;2023-06-19T01:25:59;12.40;99.90
36654;DHT22;22650;49.350;20.898;2023-06-19T01:28:34;12.40;99.90
36654;DHT22;22650;49.350;20.898;2023-06-19T01:31:11;12.40;99.90
36654;DHT22;22650;49.350;20.898;2023-06-19T01:33:47;12.30;99.90
36654;DHT22;22650;49.350;20.898;2023-06-19T01:36:21;12.30;99.90
36654;DHT22;22650;49.350;20.898;2023-06-19T01:38:58;12.30;99.90
36654;DHT22;22650;49.350;20.898;2023-06-19T01:41:36;12.30;99.90
36654;DHT22;22650;49.350;20.898;2023-06-19T01:44:10;12.20;99.90
36654;DHT22;22650;49.350;20.898;2023-06-19T01:46:47;12.20;99.90
36654;DHT22;22650;49.350;20.898;2023-06-19T01:49:21;12.10;99.90
36654;DHT22;22650;49.350;20.898;2023-06-19T01:51:55;12.10;99.90
36654;DHT22;22650;49.350;20.898;2023-06-19T01:54:31;12.10;99.90
36654;DHT22;22650;49.350;20.898;2023-06-19T01:57:05;12.10;99.90
36654;DHT22;22650;49.350;20.898;2023-06-19T01:59:38;12.00;99.90
36654;DHT22;22650;49.350;20.898;2023-06-19T02:02:12;12.00;99.90
36654;DHT22;22650;49.350;20.898;2023-06-19T02:04:46;12.00;99.90
36654;DHT22;22650;49.350;20.898;2023-06-19T02:07:19;12.00;99.90
36654;DHT22;22650;49.350;20.898;2023-06-19T02:09:54;12.00;99.90
36654;DHT22;22650;49.350;20.898;2023-06-19T02:12:28;12.00;99.90
36654;DHT22;22650;49.350;20.898;2023-06-19T02:15:02;12.00;99.90
36654;DHT22;22650;49.350;20.898;2023-06-19T02:17:37;12.00;99.90
36654;DHT22;22650;49.350;20.898;2023-06-19T02:20:12;12.00;99.90
36654;DHT22;22650;49.350;20.898;2023-06-19T02:22:45;12.00;99.90
36654;DHT22;22650;49.350;20.898;2023-06-19T02:25:20;12.00;99.90
36654;DHT22;22650;49.350;20.898;2023-06-19T02:27:54;12.00;99.90
36654;DHT22;22650;49.350;20.898;2023-06-19T02:30:27;12.00;99.90
36654;DHT22;22650;49.350;20.898;2023-06-19T02:33:01;12.00;99.90
36654;DHT22;22650;49.350;20.898;2023-06-19T02:35:35;11.90;99.90
36654;DHT22;22650;49.350;20.898;2023-06-19T02:38:09;11.90;99.90
36654;DHT22;22650;49.350;20.898;2023-06-19T02:40:46;11.90;99.90
36654;DHT22;22650;49.350;20.898;2023-06-19T02:43:19;11.90;99.90
36654;DHT22;22650;49.350;20.898;2023-06-19T02:45:53;11.90;99.90
36654;DHT22;22650;49.350;20.898;2023-06-19T02:48:28;11.90;99.90
36654;DHT22;22650;49.350;20.898;2023-06-19T02:51:01;11.90;99.90
36654;DHT22;22650;49.350;20.898;2023-06-19T02:53:35;11.90;99.90
36654;DHT22;22650;49.350;20.898;2023-06-19T02:56:11;11.90;99.90
36654;DHT22;22650;49.350;20.898;2023-06-19T02:58:45;11.80;99.90
36654;DHT22;22650;49.350;20.898;2023-06-19T03:01:19;11.80;99.90
36654;DHT22;22650;49.350;20.898;2023-06-19T03:03:52;11.80;99.90
36654;DHT22;22650;49.350;20.898;2023-06-19T03:06:26;11.80;99.90
36654;DHT22;22650;49.350;20.898;2023-06-19T03:09:01;11.80;99.90
36654;DHT22;22650;49.350;20.898;2023-06-19T03:11:36;11.80;99.90
36654;DHT22;22650;49.350;20.898;2023-06-19T03:14:11;11.80;99.90
36654;DHT22;22650;49.350;20.898;2023-06-19T03:16:44;11.80;99.90
36654;DHT22;22650;49.350;20.898;2023-06-19T03:19:18;11.80;99.90
36654;DHT22;22650;49.350;20.898;2023-06-19T03:21:52;11.80;99.90
36654;DHT22;22650;49.350;20.898;2023-06-19T03:24:26;11.90;99.90
36654;DHT22;22650;49.350;20.898;2023-06-19T03:27:14;11.80;99.90
36654;DHT22;22650;49.350;20.898;2023-06-19T03:29:48;11.80;99.90
36654;DHT22;22650;49.350;20.898;2023-06-19T03:32:29;11.80;99.90
36654;DHT22;22650;49.350;20.898;2023-06-19T03:35:06;11.80;99.90
36654;DHT22;22650;49.350;20.898;2023-06-19T03:37:45;11.80;99.90
36654;DHT22;22650;49.350;20.898;2023-06-19T03:40:18;11.80;99.90
36654;DHT22;22650;49.350;20.898;2023-06-19T03:42:55;11.80;99.90
36654;DHT22;22650;49.350;20.898;2023-06-19T03:45:29;11.80;99.90
36654;DHT22;22650;49.350;20.898;2023-06-19T03:48:03;11.80;99.90
36654;DHT22;22650;49.350;20.898;2023-06-19T03:50:37;11.80;99.90
36654;DHT22;22650;49.350;20.898;2023-06-19T03:53:12;11.80;99.90
36654;DHT22;22650;49.350;20.898;2023-06-19T03:55:46;11.80;99.90
36654;DHT22;22650;49.350;20.898;2023-06-19T03:58:21;11.80;99.90
36654;DHT22;22650;49.350;20.898;2023-06-19T04:00:55;11.80;99.90
36654;DHT22;22650;49.350;20.898;2023-06-19T04:03:28;11.80;99.90
36654;DHT22;22650;49.350;20.898;2023-06-19T04:06:02;11.80;99.90
36654;DHT22;22650;49.350;20.898;2023-06-19T04:08:36;11.80;99.90
36654;DHT22;22650;49.350;20.898;2023-06-19T04:11:10;11.90;99.90
36654;DHT22;22650;49.350;20.898;2023-06-19T04:13:45;11.90;99.90
36654;DHT22;22650;49.350;20.898;2023-06-19T04:16:19;12.00;99.90
36654;DHT22;22650;49.350;20.898;2023-06-19T04:18:53;12.00;99.90
36654;DHT22;22650;49.350;20.898;2023-06-19T04:21:27;12.10;99.90
36654;DHT22;22650;49.350;20.898;2023-06-19T04:24:02;12.10;99.90
36654;DHT22;22650;49.350;20.898;2023-06-19T04:26:37;12.20;99.90
36654;DHT22;22650;49.350;20.898;2023-06-19T04:29:12;12.30;99.90
36654;DHT22;22650;49.350;20.898;2023-06-19T04:31:49;12.30;99.90
36654;DHT22;22650;49.350;20.898;2023-06-19T04:34:23;12.40;99.90
36654;DHT22;22650;49.350;20.898;2023-06-19T04:36:57;12.40;99.90
36654;DHT22;22650;49.350;20.898;2023-06-19T04:39:31;12.40;99.90
36654;DHT22;22650;49.350;20.898;2023-06-19T04:42:05;12.50;99.90
36654;DHT22;22650;49.350;20.898;2023-06-19T04:44:41;12.50;99.90
36654;DHT22;22650;49.350;20.898;2023-06-19T04:47:18;12.60;99.90
36654;DHT22;22650;49.350;20.898;2023-06-19T04:49:52;12.60;99.90
36654;DHT22;22650;49.350;20.898;2023-06-19T04:52:26;12.60;99.90
36654;DHT22;22650;49.350;20.898;2023-06-19T04:54:59;12.70;99.90
36654;DHT22;22650;49.350;20.898;2023-06-19T04:57:33;12.70;99.90
36654;DHT22;22650;49.350;20.898;2023-06-19T05:00:09;12.80;99.90
36654;DHT22;22650;49.350;20.898;2023-06-19T05:02:43;12.80;99.90
36654;DHT22;22650;49.350;20.898;2023-06-19T05:05:19;12.80;99.90
36654;DHT22;22650;49.350;20.898;2023-06-19T05:07:55;12.90;99.90
36654;DHT22;22650;49.350;20.898;2023-06-19T05:10:29;12.90;99.90
36654;DHT22;22650;49.350;20.898;2023-06-19T05:13:03;13.00;99.90
36654;DHT22;22650;49.350;20.898;2023-06-19T05:15:38;13.00;99.90
36654;DHT22;22650;49.350;20.898;2023-06-19T05:18:12;13.00;99.90
36654;DHT22;22650;49.350;20.898;2023-06-19T05:20:46;13.00;99.90
36654;DHT22;22650;49.350;20.898;2023-06-19T05:23:19;13.10;99.90
36654;DHT22;22650;49.350;20.898;2023-06-19T05:25:53;13.20;99.90
36654;DHT22;22650;49.350;20.898;2023-06-19T05:28:27;13.20;99.90
36654;DHT22;22650;49.350;20.898;2023-06-19T05:31:02;13.30;99.90
36654;DHT22;22650;49.350;20.898;2023-06-19T05:33:36;13.40;99.90
36654;DHT22;22650;49.350;20.898;2023-06-19T05:36:10;13.40;99.90
36654;DHT22;22650;49.350;20.898;2023-06-19T05:38:44;13.60;99.90
36654;DHT22;22650;49.350;20.898;2023-06-19T05:41:17;13.70;99.90
36654;DHT22;22650;49.350;20.898;2023-06-19T05:43:51;13.70;99.90
36654;DHT22;22650;49.350;20.898;2023-06-19T05:46:26;13.80;99.90
36654;DHT22;22650;49.350;20.898;2023-06-19T05:49:00;13.80;99.90
36654;DHT22;22650;49.350;20.898;2023-06-19T05:51:34;13.90;99.90
36654;DHT22;22650;49.350;20.898;2023-06-19T05:54:07;14.00;99.90
36654;DHT22;22650;49.350;20.898;2023-06-19T05:56:42;14.10;99.90
36654;DHT22;22650;49.350;20.898;2023-06-19T05:59:15;14.20;99.90
36654;DHT22;22650;49.350;20.898;2023-06-19T06:01:50;14.30;99.90
36654;DHT22;22650;49.350;20.898;2023-06-19T06:04:25;14.40;99.90
36654;DHT22;22650;49.350;20.898;2023-06-19T06:06:59;14.50;99.90
36654;DHT22;22650;49.350;20.898;2023-06-19T06:09:32;14.60;99.90
36654;DHT22;22650;49.350;20.898;2023-06-19T06:12:07;14.70;99.90
36654;DHT22;22650;49.350;20.898;2023-06-19T06:14:41;14.90;99.90
36654;DHT22;22650;49.350;20.898;2023-06-19T06:17:16;15.00;99.90
36654;DHT22;22650;49.350;20.898;2023-06-19T06:19:50;15.10;99.90
36654;DHT22;22650;49.350;20.898;2023-06-19T06:22:23;15.20;99.90
36654;DHT22;22650;49.350;20.898;2023-06-19T06:24:57;15.40;99.90
36654;DHT22;22650;49.350;20.898;2023-06-19T06:27:31;15.40;99.90
36654;DHT22;22650;49.350;20.898;2023-06-19T06:30:06;15.60;99.90
36654;DHT22;22650;49.350;20.898;2023-06-19T06:32:41;15.70;99.90
36654;DHT22;22650;49.350;20.898;2023-06-19T06:35:16;15.80;99.90
36654;DHT22;22650;49.350;20.898;2023-06-19T06:37:49;16.00;99.90
36654;DHT22;22650;49.350;20.898;2023-06-19T06:40:23;16.10;99.90
36654;DHT22;22650;49.350;20.898;2023-06-19T06:42:58;16.20;99.90
36654;DHT22;22650;49.350;20.898;2023-06-19T06:45:31;16.40;99.90
36654;DHT22;22650;49.350;20.898;2023-06-19T06:48:06;16.60;99.90
36654;DHT22;22650;49.350;20.898;2023-06-19T06:50:40;16.70;99.90
36654;DHT22;22650;49.350;20.898;2023-06-19T06:53:15;16.90;99.90
36654;DHT22;22650;49.350;20.898;2023-06-19T06:55:48;17.00;99.90
36654;DHT22;22650;49.350;20.898;2023-06-19T06:58:22;17.20;99.90
36654;DHT22;22650;49.350;20.898;2023-06-19T07:00:56;17.40;99.90
36654;DHT22;22650;49.350;20.898;2023-06-19T07:03:31;17.50;99.90
36654;DHT22;22650;49.350;20.898;2023-06-19T07:06:07;17.70;99.90
36654;DHT22;22650;49.350;20.898;2023-06-19T07:08:40;17.80;99.90
36654;DHT22;22650;49.350;20.898;2023-06-19T07:11:14;18.00;99.90
36654;DHT22;22650;49.350;20.898;2023-06-19T07:13:48;18.10;99.90
36654;DHT22;22650;49.350;20.898;2023-06-19T07:16:21;18.30;99.90
36654;DHT22;22650;49.350;20.898;2023-06-19T07:18:56;18.50;99.90
36654;DHT22;22650;49.350;20.898;2023-06-19T07:21:30;18.60;99.90
36654;DHT22;22650;49.350;20.898;2023-06-19T07:24:04;18.80;99.90
36654;DHT22;22650;49.350;20.898;2023-06-19T07:26:38;19.00;99.90
36654;DHT22;22650;49.350;20.898;2023-06-19T07:29:12;19.20;99.90
36654;DHT22;22650;49.350;20.898;2023-06-19T07:31:46;19.40;99.90
36654;DHT22;22650;49.350;20.898;2023-06-19T07:34:21;19.60;99.90
36654;DHT22;22650;49.350;20.898;2023-06-19T07:36:55;19.90;99.90
36654;DHT22;22650;49.350;20.898;2023-06-19T07:39:30;20.10;99.90
36654;DHT22;22650;49.350;20.898;2023-06-19T07:42:05;20.30;99.90
36654;DHT22;22650;49.350;20.898;2023-06-19T07:44:38;20.60;99.90
36654;DHT22;22650;49.350;20.898;2023-06-19T07:47:12;20.80;99.90
36654;DHT22;22650;49.350;20.898;2023-06-19T07:49:47;21.10;99.90
36654;DHT22;22650;49.350;20.898;2023-06-19T07:52:21;21.40;99.90
36654;DHT22;22650;49.350;20.898;2023-06-19T07:54:56;21.70;99.90
36654;DHT22;22650;49.350;20.898;2023-06-19T07:57:29;22.00;99.90
36654;DHT22;22650;49.350;20.898;2023-06-19T08:00:04;22.40;99.90
36654;DHT22;22650;49.350;20.898;2023-06-19T08:02:42;22.60;99.90
36654;DHT22;22650;49.350;20.898;2023-06-19T08:05:18;23.00;99.90
36654;DHT22;22650;49.350;20.898;2023-06-19T08:07:52;23.20;99.90
36654;DHT22;22650;49.350;20.898;2023-06-19T08:10:26;23.50;99.90
36654;DHT22;22650;49.350;20.898;2023-06-19T08:13:00;23.80;99.90
36654;DHT22;22650;49.350;20.898;2023-06-19T08:15:34;24.00;99.90
36654;DHT22;22650;49.350;20.898;2023-06-19T08:18:07;24.30;99.90
36654;DHT22;22650;49.350;20.898;2023-06-19T08:20:43;24.50;99.90
36654;DHT22;22650;49.350;20.898;2023-06-19T08:23:16;24.70;99.90
36654;DHT22;22650;49.350;20.898;2023-06-19T08:25:50;25.00;99.90
36654;DHT22;22650;49.350;20.898;2023-06-19T08:28:25;25.30;99.90
36654;DHT22;22650;49.350;20.898;2023-06-19T08:30:59;25.60;99.90
36654;DHT22;22650;49.350;20.898;2023-06-19T08:33:34;25.70;99.90
36654;DHT22;22650;49.350;20.898;2023-06-19T08:36:09;25.90;99.90
36654;DHT22;22650;49.350;20.898;2023-06-19T08:38:43;26.10;99.90
36654;DHT22;22650;49.350;20.898;2023-06-19T08:41:19;26.40;99.90
36654;DHT22;22650;49.350;20.898;2023-06-19T08:43:53;26.60;99.90
36654;DHT22;22650;49.350;20.898;2023-06-19T08:46:27;26.90;99.90
36654;DHT22;22650;49.350;20.898;2023-06-19T08:49:01;27.10;99.40
36654;DHT22;22650;49.350;20.898;2023-06-19T08:51:37;27.30;97.80
36654;DHT22;22650;49.350;20.898;2023-06-19T08:54:11;27.60;92.70
36654;DHT22;22650;49.350;20.898;2023-06-19T08:56:47;27.90;95.40
36654;DHT22;22650;49.350;20.898;2023-06-19T08:59:21;28.10;90.80
36654;DHT22;22650;49.350;20.898;2023-06-19T09:01:55;28.30;89.70
36654;DHT22;22650;49.350;20.898;2023-06-19T09:04:33;28.50;90.30
36654;DHT22;22650;49.350;20.898;2023-06-19T09:07:08;28.70;90.00
36654;DHT22;22650;49.350;20.898;2023-06-19T09:09:48;28.80;86.80
36654;DHT22;22650;49.350;20.898;2023-06-19T09:12:22;29.00;86.10
36654;DHT22;22650;49.350;20.898;2023-06-19T09:15:11;29.10;85.00
36654;DHT22;22650;49.350;20.898;2023-06-19T09:17:46;29.30;85.20
36654;DHT22;22650;49.350;20.898;2023-06-19T09:20:26;29.30;82.10
36654;DHT22;22650;49.350;20.898;2023-06-19T09:23:01;29.50;79.60
36654;DHT22;22650;49.350;20.898;2023-06-19T09:25:45;29.60;77.90
36654;DHT22;22650;49.350;20.898;2023-06-19T09:28:20;29.70;80.00
36654;DHT22;22650;49.350;20.898;2023-06-19T09:30:55;29.80;79.70
36654;DHT22;22650;49.350;20.898;2023-06-19T09:33:31;29.70;78.80
36654;DHT22;22650;49.350;20.898;2023-06-19T09:36:06;29.70;76.80
36654;DHT22;22650;49.350;20.898;2023-06-19T09:38:41;29.60;76.40
36654;DHT22;22650;49.350;20.898;2023-06-19T09:41:17;29.50;76.60
36654;DHT22;22650;49.350;20.898;2023-06-19T09:43:55;29.40;76.00
36654;DHT22;22650;49.350;20.898;2023-06-19T09:46:30;29.40;72.30
36654;DHT22;22650;49.350;20.898;2023-06-19T09:49:06;29.30;73.40
36654;DHT22;22650;49.350;20.898;2023-06-19T09:51:41;29.30;73.90
36654;DHT22;22650;49.350;20.898;2023-06-19T09:54:17;29.30;76.60
36654;DHT22;22650;49.350;20.898;2023-06-19T09:56:56;29.20;73.80
36654;DHT22;22650;49.350;20.898;2023-06-19T09:59:32;29.20;73.90
36654;DHT22;22650;49.350;20.898;2023-06-19T10:02:07;29.20;76.30
36654;DHT22;22650;49.350;20.898;2023-06-19T10:04:42;29.20;74.00
36654;DHT22;22650;49.350;20.898;2023-06-19T10:07:19;29.20;72.40
36654;DHT22;22650;49.350;20.898;2023-06-19T10:09:59;29.10;74.00
36654;DHT22;22650;49.350;20.898;2023-06-19T10:12:37;29.00;75.20
36654;DHT22;22650;49.350;20.898;2023-06-19T10:15:15;29.00;74.50
36654;DHT22;22650;49.350;20.898;2023-06-19T10:17:51;29.00;73.00
36654;DHT22;22650;49.350;20.898;2023-06-19T10:20:26;28.90;71.30
36654;DHT22;22650;49.350;20.898;2023-06-19T10:23:05;29.00;73.90
36654;DHT22;22650;49.350;20.898;2023-06-19T10:25:42;28.90;71.40
36654;DHT22;22650;49.350;20.898;2023-06-19T10:28:20;28.90;71.00
36654;DHT22;22650;49.350;20.898;2023-06-19T10:30:55;28.90;73.50
36654;DHT22;22650;49.350;20.898;2023-06-19T10:33:31;28.90;72.70
36654;DHT22;22650;49.350;20.898;2023-06-19T10:36:14;28.90;71.50
36654;DHT22;22650;49.350;20.898;2023-06-19T10:38:48;28.80;70.80
36654;DHT22;22650;49.350;20.898;2023-06-19T10:41:24;28.70;72.80
36654;DHT22;22650;49.350;20.898;2023-06-19T10:43:59;28.60;73.80
36654;DHT22;22650;49.350;20.898;2023-06-19T10:46:35;28.60;76.90
36654;DHT22;22650;49.350;20.898;2023-06-19T10:49:09;28.50;77.80
36654;DHT22;22650;49.350;20.898;2023-06-19T10:51:48;28.30;74.60
36654;DHT22;22650;49.350;20.898;2023-06-19T10:54:21;28.20;74.90
36654;DHT22;22650;49.350;20.898;2023-06-19T10:56:57;28.30;76.70
36654;DHT22;22650;49.350;20.898;2023-06-19T10:59:38;28.40;76.60
36654;DHT22;22650;49.350;20.898;2023-06-19T11:02:13;28.50;74.30
36654;DHT22;22650;49.350;20.898;2023-06-19T11:04:52;28.60;74.50
36654;DHT22;22650;49.350;20.898;2023-06-19T11:07:27;28.80;72.90
36654;DHT22;22650;49.350;20.898;2023-06-19T11:10:03;29.00;73.40
36654;DHT22;22650;49.350;20.898;2023-06-19T11:12:38;29.20;72.90
36654;DHT22;22650;49.350;20.898;2023-06-19T11:15:12;29.40;71.30
36654;DHT22;22650;49.350;20.898;2023-06-19T11:17:46;29.40;71.20
36654;DHT22;22650;49.350;20.898;2023-06-19T11:20:20;29.40;68.60
36654;DHT22;22650;49.350;20.898;2023-06-19T11:22:59;29.50;69.20
36654;DHT22;22650;49.350;20.898;2023-06-19T11:25:35;29.60;67.80
36654;DHT22;22650;49.350;20.898;2023-06-19T11:28:15;29.70;66.40
36654;DHT22;22650;49.350;20.898;2023-06-19T11:30:58;29.70;64.80
36654;DHT22;22650;49.350;20.898;2023-06-19T11:33:33;29.70;67.70
36654;DHT22;22650;49.350;20.898;2023-06-19T11:36:06;29.80;68.60
36654;DHT22;22650;49.350;20.898;2023-06-19T11:38:43;30.00;68.20
36654;DHT22;22650;49.350;20.898;2023-06-19T11:41:25;30.00;66.40
36654;DHT22;22650;49.350;20.898;2023-06-19T11:44:03;30.00;67.00
36654;DHT22;22650;49.350;20.898;2023-06-19T11:46:37;29.90;67.20
36654;DHT22;22650;49.350;20.898;2023-06-19T11:49:12;29.80;66.90
36654;DHT22;22650;49.350;20.898;2023-06-19T11:51:46;29.70;68.60
36654;DHT22;22650;49.350;20.898;2023-06-19T11:54:20;29.70;67.90
36654;DHT22;22650;49.350;20.898;2023-06-19T11:56:53;29.80;69.90
36654;DHT22;22650;49.350;20.898;2023-06-19T11:59:29;30.00;70.60
36654;DHT22;22650;49.350;20.898;2023-06-19T12:02:03;30.10;67.60
36654;DHT22;22650;49.350;20.898;2023-06-19T12:04:37;30.20;66.40
36654;DHT22;22650;49.350;20.898;2023-06-19T12:07:10;30.20;67.40
36654;DHT22;22650;49.350;20.898;2023-06-19T12:09:44;30.40;66.30
36654;DHT22;22650;49.350;20.898;2023-06-19T12:12:18;30.30;64.10
36654;DHT22;22650;49.350;20.898;2023-06-19T12:14:53;30.30;65.40
36654;DHT22;22650;49.350;20.898;2023-06-19T12:17:27;30.20;65.50
36654;DHT22;22650;49.350;20.898;2023-06-19T12:20:02;30.20;65.10
36654;DHT22;22650;49.350;20.898;2023-06-19T12:22:38;30.20;66.10
36654;DHT22;22650;49.350;20.898;2023-06-19T12:25:11;30.20;66.40
36654;DHT22;22650;49.350;20.898;2023-06-19T12:27:45;30.20;65.30
36654;DHT22;22650;49.350;20.898;2023-06-19T12:30:21;30.20;63.80
36654;DHT22;22650;49.350;20.898;2023-06-19T12:32:56;30.10;63.40
36654;DHT22;22650;49.350;20.898;2023-06-19T12:35:29;30.20;65.20
36654;DHT22;22650;49.350;20.898;2023-06-19T12:38:03;30.50;63.90
36654;DHT22;22650;49.350;20.898;2023-06-19T12:40:39;30.70;63.40
36654;DHT22;22650;49.350;20.898;2023-06-19T12:43:12;30.50;62.80
36654;DHT22;22650;49.350;20.898;2023-06-19T12:45:48;30.30;62.30
36654;DHT22;22650;49.350;20.898;2023-06-19T12:48:21;30.00;61.70
36654;DHT22;22650;49.350;20.898;2023-06-19T12:50:55;29.80;62.50
36654;DHT22;22650;49.350;20.898;2023-06-19T12:53:29;29.50;62.90
36654;DHT22;22650;49.350;20.898;2023-06-19T12:56:03;29.40;63.70
36654;DHT22;22650;49.350;20.898;2023-06-19T12:58:43;29.30;63.80
36654;DHT22;22650;49.350;20.898;2023-06-19T13:01:18;29.20;64.80
36654;DHT22;22650;49.350;20.898;2023-06-19T13:03:53;29.30;68.60
36654;DHT22;22650;49.350;20.898;2023-06-19T13:06:26;29.40;65.00
36654;DHT22;22650;49.350;20.898;2023-06-19T13:09:00;29.40;65.10
36654;DHT22;22650;49.350;20.898;2023-06-19T13:11:37;29.30;63.60
36654;DHT22;22650;49.350;20.898;2023-06-19T13:14:11;29.20;65.00
36654;DHT22;22650;49.350;20.898;2023-06-19T13:16:46;29.10;62.90
36654;DHT22;22650;49.350;20.898;2023-06-19T13:19:20;28.90;63.60
36654;DHT22;22650;49.350;20.898;2023-06-19T13:21:53;28.90;64.70
36654;DHT22;22650;49.350;20.898;2023-06-19T13:24:27;29.00;65.60
36654;DHT22;22650;49.350;20.898;2023-06-19T13:27:01;29.20;66.60
36654;DHT22;22650;49.350;20.898;2023-06-19T13:29:35;29.20;64.30
36654;DHT22;22650;49.350;20.898;2023-06-19T13:32:10;29.30;64.20
36654;DHT22;22650;49.350;20.898;2023-06-19T13:34:44;29.40;64.40
36654;DHT22;22650;49.350;20.898;2023-06-19T13:37:25;29.50;63.30
36654;DHT22;22650;49.350;20.898;2023-06-19T13:40:01;29.60;63.10
36654;DHT22;22650;49.350;20.898;2023-06-19T13:42:35;29.60;62.70
36654;DHT22;22650;49.350;20.898;2023-06-19T13:45:14;29.80;64.90
36654;DHT22;22650;49.350;20.898;2023-06-19T13:47:49;30.00;64.90
36654;DHT22;22650;49.350;20.898;2023-06-19T13:50:23;30.20;64.10
36654;DHT22;22650;49.350;20.898;2023-06-19T13:52:57;30.40;63.60
36654;DHT22;22650;49.350;20.898;2023-06-19T13:55:31;30.70;64.20
36654;DHT22;22650;49.350;20.898;2023-06-19T13:58:04;30.70;63.60
36654;DHT22;22650;49.350;20.898;2023-06-19T14:00:38;30.70;61.30
36654;DHT22;22650;49.350;20.898;2023-06-19T14:03:14;30.60;61.80
36654;DHT22;22650;49.350;20.898;2023-06-19T14:05:48;30.40;59.20
36654;DHT22;22650;49.350;20.898;2023-06-19T14:08:22;30.40;61.60
36654;DHT22;22650;49.350;20.898;2023-06-19T14:10:56;30.30;60.90
36654;DHT22;22650;49.350;20.898;2023-06-19T14:13:30;30.10;61.30
36654;DHT22;22650;49.350;20.898;2023-06-19T14:16:03;30.10;61.30
36654;DHT22;22650;49.350;20.898;2023-06-19T14:18:39;30.00;62.10
36654;DHT22;22650;49.350;20.898;2023-06-19T14:21:12;29.90;63.70
36654;DHT22;22650;49.350;20.898;2023-06-19T14:23:46;30.00;64.20
36654;DHT22;22650;49.350;20.898;2023-06-19T14:26:19;30.00;64.20
36654;DHT22;22650;49.350;20.898;2023-06-19T14:28:53;30.00;62.00
36654;DHT22;22650;49.350;20.898;2023-06-19T14:31:29;30.00;61.00
36654;DHT22;22650;49.350;20.898;2023-06-19T14:34:04;30.10;62.90
36654;DHT22;22650;49.350;20.898;2023-06-19T14:36:39;30.10;62.00
36654;DHT22;22650;49.350;20.898;2023-06-19T14:39:13;30.20;62.30
36654;DHT22;22650;49.350;20.898;2023-06-19T14:41:46;30.20;61.00
36654;DHT22;22650;49.350;20.898;2023-06-19T14:44:20;30.30;62.40
36654;DHT22;22650;49.350;20.898;2023-06-19T14:46:53;30.20;60.60
36654;DHT22;22650;49.350;20.898;2023-06-19T14:49:29;30.20;60.50
36654;DHT22;22650;49.350;20.898;2023-06-19T14:52:03;30.30;61.80
36654;DHT22;22650;49.350;20.898;2023-06-19T14:54:36;30.30;61.30
36654;DHT22;22650;49.350;20.898;2023-06-19T14:57:10;30.40;61.70
36654;DHT22;22650;49.350;20.898;2023-06-19T14:59:43;30.40;62.20
36654;DHT22;22650;49.350;20.898;2023-06-19T15:02:17;30.40;63.50
36654;DHT22;22650;49.350;20.898;2023-06-19T15:04:52;30.50;62.50
36654;DHT22;22650;49.350;20.898;2023-06-19T15:07:37;30.50;63.10
36654;DHT22;22650;49.350;20.898;2023-06-19T15:10:11;30.30;61.90
36654;DHT22;22650;49.350;20.898;2023-06-19T15:12:45;30.40;62.20
36654;DHT22;22650;49.350;20.898;2023-06-19T15:15:18;30.50;62.50
36654;DHT22;22650;49.350;20.898;2023-06-19T15:17:52;30.50;62.10
36654;DHT22;22650;49.350;20.898;2023-06-19T15:20:27;30.30;60.90
36654;DHT22;22650;49.350;20.898;2023-06-19T15:23:01;30.50;62.90
36654;DHT22;22650;49.350;20.898;2023-06-19T15:25:37;30.50;62.40
36654;DHT22;22650;49.350;20.898;2023-06-19T15:28:10;30.60;62.10
36654;DHT22;22650;49.350;20.898;2023-06-19T15:30:44;30.50;62.00
36654;DHT22;22650;49.350;20.898;2023-06-19T15:33:18;30.50;62.30
36654;DHT22;22650;49.350;20.898;2023-06-19T15:35:53;30.40;61.50
36654;DHT22;22650;49.350;20.898;2023-06-19T15:38:26;30.20;60.90
36654;DHT22;22650;49.350;20.898;2023-06-19T15:41:00;30.20;62.60
36654;DHT22;22650;49.350;20.898;2023-06-19T15:43:34;30.10;61.10
36654;DHT22;22650;49.350;20.898;2023-06-19T15:46:08;30.00;61.30
36654;DHT22;22650;49.350;20.898;2023-06-19T15:48:42;29.90;60.90
36654;DHT22;22650;49.350;20.898;2023-06-19T15:51:17;30.00;63.00
36654;DHT22;22650;49.350;20.898;2023-06-19T15:53:51;30.00;62.90
36654;DHT22;22650;49.350;20.898;2023-06-19T15:56:24;29.90;62.50
36654;DHT22;22650;49.350;20.898;2023-06-19T15:58:59;29.90;63.20
36654;DHT22;22650;49.350;20.898;2023-06-19T16:01:33;29.80;62.00